createdAt,value
2019-02-02T00:01:03.371Z,3.20
2019-02-02T00:03:36.334Z,3.20
2019-02-02T00:06:08.595Z,3.10
2019-02-02T00:08:41.734Z,3.10
2019-02-02T00:11:13.933Z,3.10
2019-02-02T00:13:45.808Z,3.10
2019-02-02T00:16:18.194Z,3.10
2019-02-02T00:18:50.195Z,3.10
2019-02-02T00:21:22.429Z,3.10
2019-02-02T00:23:55.418Z,3.10
2019-02-02T00:26:29.819Z,3.20
2019-02-02T00:29:02.044Z,3.20
2019-02-02T00:31:36.839Z,3.20
2019-02-02T00:34:09.153Z,3.10
2019-02-02T00:36:41.207Z,3.10
2019-02-02T00:39:13.262Z,3.10
2019-02-02T00:41:45.538Z,3.10
2019-02-02T00:44:17.731Z,3.10
2019-02-02T00:46:49.710Z,3.10
2019-02-02T00:49:23.069Z,3.10
2019-02-02T00:51:57.672Z,3.10
2019-02-02T00:54:29.772Z,3.10
2019-02-02T00:57:01.747Z,3.10
2019-02-02T00:59:34.842Z,3.10
2019-02-02T01:02:07.027Z,3.10
2019-02-02T01:04:39.064Z,3.10
2019-02-02T01:07:11.526Z,3.10
2019-02-02T01:09:43.931Z,3.20
2019-02-02T01:12:17.230Z,3.20
2019-02-02T01:14:51.199Z,3.20
2019-02-02T01:17:24.487Z,3.10
2019-02-02T01:19:56.502Z,3.10
2019-02-02T01:22:29.600Z,3.20
2019-02-02T01:25:03.843Z,3.20
2019-02-02T01:27:35.880Z,3.10
2019-02-02T01:30:11.254Z,3.10
2019-02-02T01:32:44.394Z,3.00
2019-02-02T01:35:17.935Z,2.90
2019-02-02T01:37:49.959Z,2.90
2019-02-02T01:40:23.419Z,2.70
2019-02-02T01:42:56.589Z,2.70
2019-02-02T01:45:29.144Z,2.60
2019-02-02T01:48:01.636Z,2.60
2019-02-02T01:50:34.993Z,2.50
2019-02-02T01:53:08.280Z,2.60
2019-02-02T01:55:41.228Z,2.50
2019-02-02T01:58:16.952Z,2.60
2019-02-02T02:00:48.244Z,2.60
2019-02-02T02:03:21.673Z,2.70
2019-02-02T02:05:53.588Z,2.70
2019-02-02T02:08:25.516Z,2.80
2019-02-02T02:10:58.297Z,2.80
2019-02-02T02:13:30.331Z,2.90
2019-02-02T02:16:03.570Z,2.90
2019-02-02T02:18:35.580Z,2.90
2019-02-02T02:21:07.749Z,2.90
2019-02-02T02:23:42.486Z,3.00
2019-02-02T02:26:14.740Z,3.00
2019-02-02T02:28:48.848Z,3.00
2019-02-02T02:31:20.738Z,3.00
2019-02-02T02:33:52.860Z,3.10
2019-02-02T02:36:24.859Z,3.00
2019-02-02T02:38:56.976Z,2.90
2019-02-02T02:41:29.092Z,2.90
2019-02-02T02:44:01.318Z,2.80
2019-02-02T02:46:33.503Z,2.80
2019-02-02T02:49:05.603Z,2.70
2019-02-02T02:51:37.882Z,2.70
2019-02-02T02:54:11.227Z,2.70
2019-02-02T02:56:44.546Z,2.70
2019-02-02T02:59:16.800Z,2.70
2019-02-02T03:01:49.710Z,2.70
2019-02-02T03:04:22.004Z,2.70
2019-02-02T03:06:54.303Z,2.60
2019-02-02T03:09:27.651Z,2.60
2019-02-02T03:12:01.201Z,2.60
2019-02-02T03:14:33.567Z,2.70
2019-02-02T03:17:05.757Z,2.70
2019-02-02T03:19:37.748Z,2.70
2019-02-02T03:22:11.063Z,2.60
2019-02-02T03:24:43.353Z,2.50
2019-02-02T03:27:15.309Z,2.40
2019-02-02T03:29:47.468Z,2.30
2019-02-02T03:32:19.526Z,2.30
2019-02-02T03:34:51.715Z,2.30
2019-02-02T03:37:23.996Z,2.20
2019-02-02T03:39:56.340Z,2.20
2019-02-02T03:42:28.725Z,2.10
2019-02-02T03:45:01.995Z,2.10
2019-02-02T03:47:35.562Z,2.10
2019-02-02T03:50:08.306Z,2.00
2019-02-02T03:52:40.663Z,2.00
2019-02-02T03:55:13.778Z,2.00
2019-02-02T03:57:45.997Z,2.00
2019-02-02T04:00:20.654Z,2.00
2019-02-02T04:02:52.803Z,2.10
2019-02-02T04:05:26.862Z,2.10
2019-02-02T04:08:00.424Z,2.10
2019-02-02T04:10:32.529Z,2.10
2019-02-02T04:13:04.640Z,2.20
2019-02-02T04:15:36.622Z,2.20
2019-02-02T04:18:12.672Z,2.20
2019-02-02T04:20:44.823Z,2.20
2019-02-02T04:23:16.795Z,2.30
2019-02-02T04:25:48.991Z,2.30
2019-02-02T04:28:21.085Z,2.30
2019-02-02T04:30:53.479Z,2.30
2019-02-02T04:33:25.571Z,2.30
2019-02-02T04:35:57.896Z,2.30
2019-02-02T04:38:31.229Z,2.40
2019-02-02T04:41:02.849Z,2.40
2019-02-02T04:43:35.826Z,2.30
2019-02-02T04:46:07.956Z,2.30
2019-02-02T04:48:39.831Z,2.30
2019-02-02T04:51:11.921Z,2.40
2019-02-02T04:53:44.251Z,2.40
2019-02-02T04:56:17.544Z,2.40
2019-02-02T04:58:50.689Z,2.40
2019-02-02T05:01:22.916Z,2.50
2019-02-02T05:03:56.283Z,2.50
2019-02-02T05:06:28.506Z,2.50
2019-02-02T05:09:00.694Z,2.50
2019-02-02T05:11:33.074Z,2.50
2019-02-02T05:14:05.159Z,2.50
2019-02-02T05:16:38.374Z,2.60
2019-02-02T05:19:10.396Z,2.60
2019-02-02T05:21:43.016Z,2.60
2019-02-02T05:24:15.211Z,2.60
2019-02-02T05:26:47.415Z,2.70
2019-02-02T05:29:21.831Z,2.70
2019-02-02T05:31:53.889Z,2.80
2019-02-02T05:34:26.181Z,2.80
2019-02-02T05:36:58.750Z,2.80
2019-02-02T05:39:30.679Z,2.80
2019-02-02T05:42:02.663Z,2.80
2019-02-02T05:44:35.723Z,2.80
2019-02-02T05:47:09.988Z,2.80
2019-02-02T05:49:42.019Z,2.80
2019-02-02T05:52:14.242Z,2.80
2019-02-02T05:54:46.420Z,2.80
2019-02-02T05:57:18.635Z,2.80
2019-02-02T05:59:53.060Z,2.80
2019-02-02T06:02:25.311Z,2.90
2019-02-02T06:04:57.724Z,2.90
2019-02-02T06:07:29.648Z,2.90
2019-02-02T06:10:03.370Z,2.90
2019-02-02T06:12:36.356Z,2.90
2019-02-02T06:15:09.149Z,2.90
2019-02-02T06:17:41.172Z,2.90
2019-02-02T06:20:14.252Z,2.80
2019-02-02T06:22:46.540Z,2.90
2019-02-02T06:25:19.055Z,2.80
2019-02-02T06:27:51.043Z,2.70
2019-02-02T06:30:25.219Z,2.60
2019-02-02T06:32:57.727Z,2.60
2019-02-02T06:35:29.835Z,2.60
2019-02-02T06:38:04.258Z,2.60
2019-02-02T06:40:37.975Z,2.60
2019-02-02T06:43:10.475Z,2.50
2019-02-02T06:45:43.885Z,2.50
2019-02-02T06:48:16.318Z,2.60
2019-02-02T06:50:48.747Z,2.60
2019-02-02T06:53:23.617Z,2.60
2019-02-02T06:55:56.638Z,2.60
2019-02-02T06:58:29.363Z,2.60
2019-02-02T07:01:02.743Z,2.60
2019-02-02T07:03:34.831Z,2.60
2019-02-02T07:06:09.902Z,2.50
2019-02-02T07:08:42.072Z,2.60
2019-02-02T07:11:14.288Z,2.60
2019-02-02T07:13:47.340Z,2.60
2019-02-02T07:16:19.929Z,2.70
2019-02-02T07:18:54.212Z,2.70
2019-02-02T07:21:28.537Z,2.70
2019-02-02T07:24:00.529Z,2.70
2019-02-02T07:26:32.657Z,2.80
2019-02-02T07:29:06.613Z,2.80
2019-02-02T07:31:38.571Z,2.80
2019-02-02T07:34:10.640Z,2.80
2019-02-02T07:36:43.739Z,2.80
2019-02-02T07:39:15.894Z,2.80
2019-02-02T07:41:47.807Z,2.90
2019-02-02T07:44:20.707Z,2.90
2019-02-02T07:46:52.766Z,2.90
2019-02-02T07:49:24.964Z,2.90
2019-02-02T07:51:58.002Z,3.00
2019-02-02T07:54:32.977Z,3.00
2019-02-02T07:57:04.108Z,3.00
2019-02-02T07:59:36.367Z,3.10
2019-02-02T08:02:08.361Z,3.10
2019-02-02T08:04:40.436Z,3.20
2019-02-02T08:07:12.433Z,3.20
2019-02-02T08:09:44.424Z,3.20
2019-02-02T08:12:19.443Z,3.30
2019-02-02T08:14:51.609Z,3.30
2019-02-02T08:17:24.719Z,3.40
2019-02-02T08:19:56.938Z,3.40
2019-02-02T08:22:29.061Z,3.50
2019-02-02T08:25:02.554Z,3.50
2019-02-02T08:27:36.558Z,3.50
2019-02-02T08:30:12.766Z,3.60
2019-02-02T08:32:46.059Z,3.60
2019-02-02T08:35:19.600Z,3.60
2019-02-02T08:37:51.783Z,3.60
2019-02-02T08:40:24.919Z,3.60
2019-02-02T08:42:56.970Z,3.50
2019-02-02T08:45:28.970Z,3.50
2019-02-02T08:48:02.390Z,3.50
2019-02-02T08:50:39.065Z,3.50
2019-02-02T08:53:12.484Z,3.60
2019-02-02T08:55:45.900Z,3.70
2019-02-02T08:58:18.047Z,3.80
2019-02-02T09:00:50.176Z,3.90
2019-02-02T09:03:23.509Z,3.90
2019-02-02T09:05:55.936Z,4.00
2019-02-02T09:08:29.196Z,4.00
2019-02-02T09:11:03.030Z,4.00
2019-02-02T09:13:36.901Z,4.10
2019-02-02T09:16:10.731Z,4.00
2019-02-02T09:18:42.907Z,4.10
2019-02-02T09:21:15.059Z,4.10
2019-02-02T09:23:47.032Z,4.20
2019-02-02T09:26:19.960Z,4.20
2019-02-02T09:28:54.135Z,4.20
2019-02-02T09:31:26.061Z,4.20
2019-02-02T09:33:58.195Z,4.20
2019-02-02T09:36:32.761Z,4.30
2019-02-02T09:39:06.402Z,4.30
2019-02-02T09:41:40.730Z,4.30
2019-02-02T09:44:12.540Z,4.40
2019-02-02T09:46:45.959Z,4.50
2019-02-02T09:49:18.192Z,4.60
2019-02-02T09:51:50.174Z,4.60
2019-02-02T09:54:26.499Z,4.60
2019-02-02T09:56:58.412Z,4.70
2019-02-02T09:59:33.014Z,4.70
2019-02-02T10:02:05.636Z,4.80
2019-02-02T10:04:37.947Z,4.80
2019-02-02T10:07:11.200Z,4.80
2019-02-02T10:09:44.437Z,4.80
2019-02-02T10:12:16.595Z,4.80
2019-02-02T10:14:50.010Z,4.80
2019-02-02T10:17:22.161Z,4.80
2019-02-02T10:19:54.303Z,4.70
2019-02-02T10:22:26.435Z,4.80
2019-02-02T10:24:59.560Z,4.80
2019-02-02T10:27:31.780Z,4.80
2019-02-02T10:30:03.838Z,4.90
2019-02-02T10:32:37.105Z,4.90
2019-02-02T10:35:09.119Z,4.90
2019-02-02T10:37:41.958Z,4.90
2019-02-02T10:40:14.304Z,4.90
2019-02-02T10:42:46.791Z,5.00
2019-02-02T10:45:18.838Z,5.20
2019-02-02T10:47:52.223Z,5.30
2019-02-02T10:50:25.529Z,5.40
2019-02-02T10:52:57.805Z,5.40
2019-02-02T10:55:29.993Z,5.50
2019-02-02T10:58:24.974Z,5.50
2019-02-02T11:01:01.326Z,5.50
2019-02-02T11:03:36.762Z,5.60
2019-02-02T11:06:08.762Z,5.60
2019-02-02T11:08:46.927Z,5.70
2019-02-02T11:11:29.966Z,5.80
2019-02-02T11:14:06.301Z,6.00
2019-02-02T11:16:38.281Z,6.00
2019-02-02T11:19:21.783Z,6.10
2019-02-02T11:21:56.203Z,6.20
2019-02-02T11:24:31.644Z,6.20
2019-02-02T11:27:04.752Z,6.30
2019-02-02T11:29:36.907Z,6.30
2019-02-02T11:32:09.835Z,6.30
2019-02-02T11:34:46.090Z,6.30
2019-02-02T11:37:22.324Z,6.40
2019-02-02T11:39:57.806Z,6.50
2019-02-02T11:45:27.912Z,6.70
2019-02-02T11:48:01.490Z,6.70
2019-02-02T11:50:34.479Z,6.70
2019-02-02T11:53:06.523Z,6.70
2019-02-02T11:55:40.745Z,6.70
2019-02-02T11:58:14.298Z,6.70
2019-02-02T12:00:46.574Z,6.70
2019-02-02T12:03:26.414Z,6.70
2019-02-02T12:05:58.615Z,6.70
2019-02-02T12:08:55.773Z,6.70
2019-02-02T12:11:35.516Z,6.70
2019-02-02T12:17:19.426Z,7.10
2019-02-02T12:19:51.360Z,7.70
2019-02-02T12:22:23.240Z,8.20
2019-02-02T12:24:55.402Z,8.50
2019-02-02T12:27:27.460Z,8.80
2019-02-02T12:30:00.528Z,9.10
2019-02-02T12:32:32.493Z,9.20
2019-02-02T12:35:05.139Z,9.40
2019-02-02T12:37:37.275Z,9.40
2019-02-02T12:40:11.601Z,9.40
2019-02-02T12:42:43.435Z,9.50
2019-02-02T12:45:18.288Z,9.50
2019-02-02T12:47:51.514Z,9.50
2019-02-02T12:50:24.587Z,9.30
2019-02-02T12:52:57.528Z,9.20
2019-02-02T12:55:29.471Z,9.10
2019-02-02T12:58:02.579Z,9.00
2019-02-02T13:00:36.968Z,9.00
2019-02-02T13:03:09.559Z,9.00
2019-02-02T13:05:41.498Z,9.00
2019-02-02T13:08:13.779Z,9.00
2019-02-02T13:10:48.479Z,9.10
2019-02-02T13:13:21.464Z,9.20
2019-02-02T13:15:53.463Z,9.20
2019-02-02T13:18:26.759Z,9.10
2019-02-02T13:21:00.729Z,9.10
2019-02-02T13:23:32.709Z,8.90
2019-02-02T13:26:05.898Z,9.00
2019-02-02T13:28:41.122Z,8.90
2019-02-02T13:31:13.135Z,8.90
2019-02-02T13:33:46.269Z,8.80
2019-02-02T13:36:19.368Z,8.80
2019-02-02T13:38:51.487Z,8.90
2019-02-02T13:41:24.858Z,8.90
2019-02-02T13:43:57.919Z,9.00
2019-02-02T13:46:29.955Z,9.00
2019-02-02T13:49:04.522Z,8.90
2019-02-02T13:51:37.535Z,8.80
2019-02-02T13:54:14.991Z,8.80
2019-02-02T13:56:49.812Z,8.80
2019-02-02T13:59:21.558Z,8.80
2019-02-02T14:01:54.632Z,8.80
2019-02-02T14:04:28.148Z,8.80
2019-02-02T14:07:00.149Z,8.80
2019-02-02T14:09:33.165Z,8.80
2019-02-02T14:12:05.358Z,8.90
2019-02-02T14:14:37.597Z,8.90
2019-02-02T14:21:26.434Z,8.60
2019-02-02T14:23:58.748Z,8.30
2019-02-02T14:26:30.962Z,8.20
2019-02-02T14:29:03.023Z,8.10
2019-02-02T14:31:35.010Z,8.00
2019-02-02T14:34:07.117Z,8.00
2019-02-02T14:43:10.586Z,8.70
2019-02-02T14:45:46.883Z,8.70
2019-02-02T14:48:28.287Z,8.50
2019-02-02T14:51:04.314Z,8.40
2019-02-02T14:56:32.378Z,8.10
2019-02-02T14:59:13.484Z,8.20
2019-02-02T15:01:45.323Z,8.10
2019-02-02T15:04:17.281Z,8.00
2019-02-02T15:06:49.163Z,8.00
2019-02-02T15:09:21.048Z,7.80
2019-02-02T15:11:53.010Z,7.60
2019-02-02T15:14:24.786Z,7.50
2019-02-02T15:16:56.674Z,7.30
2019-02-02T15:19:28.587Z,7.30
2019-02-02T15:22:00.454Z,7.10
2019-02-02T15:24:32.396Z,7.00
2019-02-02T15:27:04.283Z,6.90
2019-02-02T15:29:36.131Z,6.80
2019-02-02T15:32:08.012Z,6.60
2019-02-02T15:34:39.934Z,6.50
2019-02-02T15:37:11.863Z,6.50
2019-02-02T15:39:43.770Z,6.40
2019-02-02T15:42:15.671Z,6.40
2019-02-02T15:44:47.531Z,6.30
2019-02-02T15:47:19.359Z,6.30
2019-02-02T15:49:51.202Z,6.30
2019-02-02T15:52:23.109Z,6.20
2019-02-02T15:54:55.021Z,6.10
2019-02-02T15:57:28.223Z,6.10
2019-02-02T16:00:00.085Z,6.00
2019-02-02T16:02:31.987Z,6.00
2019-02-02T16:05:04.563Z,6.00
2019-02-02T16:07:36.512Z,5.90
2019-02-02T16:10:10.791Z,5.90
2019-02-02T16:12:42.600Z,5.80
2019-02-02T16:15:14.872Z,5.70
2019-02-02T16:17:46.831Z,5.80
2019-02-02T16:20:21.035Z,5.70
2019-02-02T16:22:52.836Z,5.70
2019-02-02T16:25:24.761Z,5.60
2019-02-02T16:27:56.556Z,5.60
2019-02-02T16:30:29.842Z,5.60
2019-02-02T16:33:01.703Z,5.50
2019-02-02T16:35:34.796Z,5.50
2019-02-02T16:38:07.159Z,5.40
2019-02-02T16:40:38.966Z,5.30
2019-02-02T16:43:10.962Z,5.20
2019-02-02T16:45:43.762Z,5.20
2019-02-02T16:48:15.633Z,5.10
2019-02-02T16:50:47.424Z,5.10
2019-02-02T16:53:21.767Z,5.00
2019-02-02T16:55:52.826Z,5.00
2019-02-02T16:58:25.986Z,5.00
2019-02-02T17:00:57.804Z,5.00
2019-02-02T17:03:29.623Z,5.00
2019-02-02T17:06:01.021Z,5.00
2019-02-02T17:08:33.842Z,5.00
2019-02-02T17:11:06.817Z,5.00
2019-02-02T17:13:38.697Z,5.00
2019-02-02T17:16:10.527Z,5.00
2019-02-02T17:18:42.333Z,5.00
2019-02-02T17:21:14.184Z,4.90
2019-02-02T17:23:46.109Z,4.90
2019-02-02T17:26:17.922Z,4.80
2019-02-02T17:28:50.959Z,4.80
2019-02-02T17:31:24.386Z,4.70
2019-02-02T17:33:57.590Z,4.60
2019-02-02T17:36:29.572Z,4.50
2019-02-02T17:39:04.865Z,4.50
2019-02-02T17:41:36.818Z,4.50
2019-02-02T17:44:09.815Z,4.50
2019-02-02T17:46:47.137Z,4.50
2019-02-02T17:49:20.537Z,4.60
2019-02-02T17:51:53.355Z,4.70
2019-02-02T17:54:27.807Z,4.70
2019-02-02T17:57:02.174Z,4.70
2019-02-02T17:59:34.019Z,4.80
2019-02-02T18:02:06.107Z,4.80
2019-02-02T18:04:43.072Z,4.80
2019-02-02T18:07:14.059Z,4.80
2019-02-02T18:09:47.123Z,4.80
2019-02-02T18:12:20.106Z,4.70
2019-02-02T18:14:53.581Z,4.60
2019-02-02T18:17:29.221Z,4.50
2019-02-02T18:20:01.215Z,4.40
2019-02-02T18:22:34.116Z,4.40
2019-02-02T18:25:08.302Z,4.20
2019-02-02T18:27:42.814Z,4.20
2019-02-02T18:30:18.417Z,4.10
2019-02-02T18:32:50.267Z,4.00
2019-02-02T18:35:22.398Z,3.80
2019-02-02T18:37:54.270Z,3.80
2019-02-02T18:40:27.157Z,3.70
2019-02-02T18:42:59.020Z,3.70
2019-02-02T18:45:31.899Z,3.70
2019-02-02T18:48:03.937Z,3.70
2019-02-02T18:50:35.785Z,3.70
2019-02-02T18:53:07.607Z,3.70
2019-02-02T18:55:52.099Z,3.70
2019-02-02T18:58:24.075Z,3.70
2019-02-02T19:00:55.989Z,3.70
2019-02-02T19:03:27.898Z,3.80
2019-02-02T19:05:59.794Z,3.90
2019-02-02T19:08:31.654Z,3.90
2019-02-02T19:11:03.836Z,4.00
2019-02-02T19:13:35.938Z,4.00
2019-02-02T19:16:07.944Z,4.00
2019-02-02T19:18:39.868Z,4.00
2019-02-02T19:21:11.743Z,4.00
2019-02-02T19:23:43.618Z,4.00
2019-02-02T19:26:15.563Z,4.00
2019-02-02T19:28:48.472Z,4.00
2019-02-02T19:31:20.403Z,4.00
2019-02-02T19:33:52.275Z,3.90
2019-02-02T19:36:24.169Z,4.00
2019-02-02T19:38:56.110Z,4.00
2019-02-02T19:41:28.049Z,4.00
2019-02-02T19:43:59.913Z,4.00
2019-02-02T19:46:31.740Z,3.90
2019-02-02T19:49:03.629Z,3.70
2019-02-02T19:51:35.534Z,3.70
2019-02-02T19:54:11.503Z,3.70
2019-02-02T19:56:44.667Z,3.50
2019-02-02T19:59:16.670Z,3.40
2019-02-02T20:01:48.574Z,3.40
2019-02-02T20:04:20.386Z,3.20
2019-02-02T20:06:52.382Z,3.20
2019-02-02T20:09:24.213Z,3.10
2019-02-02T20:11:56.117Z,3.10
2019-02-02T20:14:27.954Z,3.10
2019-02-02T20:16:59.800Z,3.20
2019-02-02T20:19:31.654Z,3.30
2019-02-02T20:22:03.525Z,3.40
2019-02-02T20:24:35.396Z,3.50
2019-02-02T20:27:07.299Z,3.60
2019-02-02T20:29:39.130Z,3.70
2019-02-02T20:32:10.938Z,3.70
2019-02-02T20:34:42.727Z,3.80
2019-02-02T20:37:14.517Z,3.90
2019-02-02T20:39:46.365Z,4.00
2019-02-02T20:42:18.145Z,4.10
2019-02-02T20:44:49.927Z,4.10
2019-02-02T20:47:21.862Z,4.20
2019-02-02T20:49:54.026Z,4.20
2019-02-02T20:52:25.850Z,4.30
2019-02-02T20:54:57.692Z,4.30
2019-02-02T20:57:29.492Z,4.30
2019-02-02T21:00:01.398Z,4.40
2019-02-02T21:02:33.316Z,4.40
2019-02-02T21:05:05.668Z,4.50
2019-02-02T21:07:37.452Z,4.50
2019-02-02T21:10:11.568Z,4.50
2019-02-02T21:12:43.789Z,4.50
2019-02-02T21:15:15.772Z,4.50
2019-02-02T21:17:47.631Z,4.50
2019-02-02T21:20:24.604Z,4.50
2019-02-02T21:22:56.770Z,4.50
2019-02-02T21:25:28.678Z,4.50
2019-02-02T21:28:00.455Z,4.50
2019-02-02T21:30:34.313Z,4.50
2019-02-02T21:33:06.738Z,4.50
2019-02-02T21:35:38.660Z,4.50
2019-02-02T21:38:10.517Z,4.40
2019-02-02T21:40:42.425Z,4.40
2019-02-02T21:43:14.325Z,4.40
2019-02-02T21:45:46.154Z,4.40
2019-02-02T21:48:24.122Z,4.50
2019-02-02T21:50:55.983Z,4.50
2019-02-02T21:53:27.836Z,4.50
2019-02-02T21:55:59.688Z,4.50
2019-02-02T21:58:31.519Z,4.50
2019-02-02T22:01:03.388Z,4.50
2019-02-02T22:03:36.232Z,4.60
2019-02-02T22:06:15.620Z,4.60
2019-02-02T22:08:46.383Z,4.50
2019-02-02T22:11:18.359Z,4.50
2019-02-02T22:13:51.189Z,4.50
2019-02-02T22:16:23.580Z,4.50
2019-02-02T22:18:56.696Z,4.50
2019-02-02T22:21:28.695Z,4.50
2019-02-02T22:24:00.595Z,4.40
2019-02-02T22:26:32.544Z,4.40
2019-02-02T22:29:05.410Z,4.40
2019-02-02T22:31:39.404Z,4.30
2019-02-02T22:34:13.709Z,4.30
2019-02-02T22:36:46.548Z,4.30
2019-02-02T22:39:19.688Z,4.30
2019-02-02T22:41:51.619Z,4.40
2019-02-02T22:44:25.227Z,4.30
2019-02-02T22:46:59.452Z,4.30
2019-02-02T22:49:32.593Z,4.30
2019-02-02T22:52:05.802Z,4.30
2019-02-02T22:54:39.997Z,4.30
2019-02-02T22:57:12.164Z,4.30
2019-02-02T22:59:47.790Z,4.30
2019-02-02T23:02:21.641Z,4.30
2019-02-02T23:05:26.035Z,4.30
2019-02-02T23:08:40.265Z,4.30
2019-02-02T23:11:33.105Z,4.30
2019-02-02T23:14:29.318Z,4.40
2019-02-02T23:17:01.436Z,4.30
2019-02-02T23:19:33.432Z,4.40
2019-02-02T23:22:05.793Z,4.30
2019-02-02T23:24:38.062Z,4.40
2019-02-02T23:27:10.503Z,4.40
2019-02-02T23:29:42.890Z,4.50
2019-02-02T23:32:15.063Z,4.50
2019-02-02T23:34:48.250Z,4.40
2019-02-02T23:37:20.420Z,4.50
2019-02-02T23:39:52.584Z,4.50
2019-02-02T23:42:25.589Z,4.50
2019-02-02T23:44:57.698Z,4.60
2019-02-02T23:47:29.639Z,4.60
2019-02-02T23:50:01.842Z,4.60
2019-02-02T23:52:33.829Z,4.60
2019-02-02T23:55:06.595Z,4.60
2019-02-02T23:57:40.222Z,4.50
